createdAt,value
2022-08-28T00:00:02.866Z,0.00
2022-08-28T00:01:03.160Z,0.00
2022-08-28T00:02:01.908Z,0.00
2022-08-28T00:03:02.519Z,0.00
2022-08-28T00:04:01.904Z,0.00
2022-08-28T00:05:01.935Z,0.00
2022-08-28T00:06:01.819Z,0.00
2022-08-28T00:07:02.478Z,0.00
2022-08-28T00:08:02.631Z,0.00
2022-08-28T00:09:02.846Z,0.00
2022-08-28T00:10:02.404Z,0.00
2022-08-28T00:11:02.394Z,0.00
2022-08-28T00:12:02.506Z,0.00
2022-08-28T00:13:02.100Z,0.00
2022-08-28T00:14:01.982Z,0.00
2022-08-28T00:15:01.921Z,0.00
2022-08-28T00:16:02.637Z,0.00
2022-08-28T00:17:02.299Z,0.00
2022-08-28T00:18:02.822Z,0.00
2022-08-28T00:19:02.508Z,0.00
2022-08-28T00:20:02.777Z,0.00
2022-08-28T00:21:02.526Z,0.00
2022-08-28T00:22:02.479Z,0.00
2022-08-28T00:23:02.724Z,0.00
2022-08-28T00:24:02.666Z,0.00
2022-08-28T00:25:02.578Z,0.00
2022-08-28T00:26:02.512Z,0.00
2022-08-28T00:27:02.484Z,0.00
2022-08-28T00:28:05.433Z,0.00
2022-08-28T00:29:02.212Z,0.00
2022-08-28T00:30:02.269Z,0.00
2022-08-28T00:31:02.326Z,0.00
2022-08-28T00:32:02.633Z,0.00
2022-08-28T00:33:02.275Z,0.00
2022-08-28T00:34:02.339Z,0.00
2022-08-28T00:35:02.288Z,0.00
2022-08-28T00:36:02.250Z,0.00
2022-08-28T00:37:02.657Z,0.00
2022-08-28T00:38:02.592Z,0.00
2022-08-28T00:39:02.619Z,0.00
2022-08-28T00:40:02.695Z,0.00
2022-08-28T00:41:03.768Z,0.00
2022-08-28T00:42:02.973Z,0.00
2022-08-28T00:43:02.907Z,0.00
2022-08-28T00:44:02.795Z,0.00
2022-08-28T00:45:03.401Z,0.00
2022-08-28T00:46:03.187Z,0.00
2022-08-28T00:47:02.186Z,0.00
2022-08-28T00:48:02.167Z,0.00
2022-08-28T00:49:02.301Z,0.00
2022-08-28T00:50:02.597Z,0.00
2022-08-28T00:51:02.283Z,0.00
2022-08-28T00:52:02.882Z,0.00
2022-08-28T00:53:03.120Z,0.00
2022-08-28T00:54:07.381Z,0.00
2022-08-28T00:55:02.995Z,0.00
2022-08-28T00:56:02.675Z,0.00
2022-08-28T00:57:02.354Z,0.00
2022-08-28T00:58:02.479Z,0.00
2022-08-28T00:59:02.481Z,0.00
2022-08-28T01:00:02.387Z,0.00
2022-08-28T01:01:02.369Z,0.00
2022-08-28T01:02:03.007Z,0.00
2022-08-28T01:03:02.986Z,0.00
2022-08-28T01:04:03.021Z,0.00
2022-08-28T01:05:02.930Z,0.00
2022-08-28T01:06:02.830Z,0.00
2022-08-28T01:07:03.400Z,0.00
2022-08-28T01:08:03.338Z,0.00
2022-08-28T01:09:03.637Z,0.00
2022-08-28T01:10:03.581Z,0.00
2022-08-28T01:11:03.454Z,0.00
2022-08-28T01:12:03.070Z,0.00
2022-08-28T01:13:03.134Z,0.00
2022-08-28T01:14:03.232Z,0.00
2022-08-28T01:15:03.190Z,0.00
2022-08-28T01:16:03.357Z,0.00
2022-08-28T01:17:02.424Z,0.00
2022-08-28T01:18:07.372Z,0.00
2022-08-28T01:19:02.516Z,0.00
2022-08-28T01:20:02.548Z,0.00
2022-08-28T01:21:02.466Z,0.00
2022-08-28T01:22:03.521Z,0.00
2022-08-28T01:23:03.373Z,0.00
2022-08-28T01:24:03.413Z,0.00
2022-08-28T01:25:03.150Z,0.00
2022-08-28T01:26:03.618Z,0.00
2022-08-28T01:27:03.595Z,0.00
2022-08-28T01:28:03.647Z,0.00
2022-08-28T01:29:03.565Z,0.00
2022-08-28T01:30:03.382Z,0.00
2022-08-28T01:31:04.054Z,0.00
2022-08-28T01:32:02.913Z,0.00
2022-08-28T01:33:02.442Z,0.00
2022-08-28T01:34:03.046Z,0.00
2022-08-28T01:35:02.605Z,0.00
2022-08-28T01:36:02.802Z,0.00
2022-08-28T01:37:03.671Z,0.00
2022-08-28T01:38:03.368Z,0.00
2022-08-28T01:39:03.283Z,0.00
2022-08-28T01:40:03.133Z,0.00
2022-08-28T01:41:03.035Z,0.00
2022-08-28T01:42:03.651Z,0.00
2022-08-28T01:43:03.512Z,0.00
2022-08-28T01:44:03.450Z,0.00
2022-08-28T01:45:03.674Z,0.00
2022-08-28T01:46:03.875Z,0.00
2022-08-28T01:47:03.272Z,0.00
2022-08-28T01:48:03.131Z,0.00
2022-08-28T01:49:03.027Z,0.00
2022-08-28T01:50:02.925Z,0.00
2022-08-28T01:51:03.351Z,0.00
2022-08-28T01:52:03.757Z,0.00
2022-08-28T01:53:03.575Z,0.00
2022-08-28T01:54:03.337Z,0.00
2022-08-28T01:55:05.055Z,0.00
2022-08-28T01:56:04.553Z,0.00
2022-08-28T01:57:03.349Z,0.00
2022-08-28T01:58:02.995Z,0.00
2022-08-28T01:59:02.839Z,0.00
2022-08-28T02:00:03.214Z,0.00
2022-08-28T02:01:03.433Z,0.00
2022-08-28T02:02:02.267Z,0.00
2022-08-28T02:03:02.478Z,0.00
2022-08-28T02:04:02.571Z,0.00
2022-08-28T02:05:02.592Z,0.00
2022-08-28T02:06:02.809Z,0.00
2022-08-28T02:07:03.428Z,0.00
2022-08-28T02:08:03.109Z,0.00
2022-08-28T02:09:03.035Z,0.00
2022-08-28T02:10:03.053Z,0.00
2022-08-28T02:11:02.965Z,0.00
2022-08-28T02:12:03.540Z,0.00
2022-08-28T02:13:03.163Z,0.00
2022-08-28T02:14:03.059Z,0.00
2022-08-28T02:15:03.415Z,0.00
2022-08-28T02:16:03.422Z,0.00
2022-08-28T02:17:02.419Z,0.00
2022-08-28T02:18:02.800Z,0.00
2022-08-28T02:19:02.738Z,0.00
2022-08-28T02:20:02.904Z,0.00
2022-08-28T02:21:02.840Z,0.00
2022-08-28T02:22:03.622Z,0.00
2022-08-28T02:23:03.172Z,0.00
2022-08-28T02:24:03.074Z,0.00
2022-08-28T02:25:03.093Z,0.00
2022-08-28T02:26:02.993Z,0.00
2022-08-28T02:27:02.643Z,0.00
2022-08-28T02:28:03.076Z,0.00
2022-08-28T02:29:02.976Z,0.00
2022-08-28T02:30:03.370Z,0.00
2022-08-28T02:31:02.982Z,0.00
2022-08-28T02:32:02.560Z,0.00
2022-08-28T02:33:02.502Z,0.00
2022-08-28T02:34:02.791Z,0.00
2022-08-28T02:35:02.764Z,0.00
2022-08-28T02:36:02.844Z,0.00
2022-08-28T02:37:02.513Z,0.00
2022-08-28T02:38:02.668Z,0.00
2022-08-28T02:39:02.630Z,0.00
2022-08-28T02:40:02.563Z,0.00
2022-08-28T02:41:04.170Z,0.00
2022-08-28T02:42:03.613Z,0.00
2022-08-28T02:43:03.514Z,0.00
2022-08-28T02:44:03.478Z,0.00
2022-08-28T02:45:03.416Z,0.00
2022-08-28T02:46:03.403Z,0.00
2022-08-28T02:47:02.784Z,0.00
2022-08-28T02:48:02.695Z,0.00
2022-08-28T02:49:02.583Z,0.00
2022-08-28T02:50:02.491Z,0.00
2022-08-28T02:51:02.361Z,0.00
2022-08-28T02:52:03.287Z,0.00
2022-08-28T02:53:03.542Z,0.00
2022-08-28T02:54:03.198Z,0.00
2022-08-28T02:55:03.271Z,0.00
2022-08-28T02:56:03.210Z,0.00
2022-08-28T02:57:02.864Z,0.00
2022-08-28T02:58:03.304Z,0.00
2022-08-28T02:59:03.039Z,0.00
2022-08-28T03:00:03.166Z,0.00
2022-08-28T03:01:03.342Z,0.00
2022-08-28T03:02:03.080Z,0.00
2022-08-28T03:03:03.003Z,0.00
2022-08-28T03:04:02.926Z,0.00
2022-08-28T03:05:02.920Z,0.00
2022-08-28T03:06:03.255Z,0.00
2022-08-28T03:07:02.248Z,0.00
2022-08-28T03:08:02.419Z,0.00
2022-08-28T03:09:02.324Z,0.00
2022-08-28T03:10:02.213Z,0.00
2022-08-28T03:11:02.093Z,0.00
2022-08-28T03:12:02.656Z,0.00
2022-08-28T03:13:03.024Z,0.00
2022-08-28T03:14:02.659Z,0.00
2022-08-28T03:15:02.525Z,0.00
2022-08-28T03:16:03.079Z,0.00
2022-08-28T03:17:02.726Z,0.00
2022-08-28T03:18:02.912Z,0.00
2022-08-28T03:19:03.005Z,0.00
2022-08-28T03:20:02.893Z,0.00
2022-08-28T03:21:02.792Z,0.00
2022-08-28T03:22:02.421Z,0.00
2022-08-28T03:23:02.301Z,0.00
2022-08-28T03:24:02.530Z,0.00
2022-08-28T03:25:02.282Z,0.00
2022-08-28T03:26:02.170Z,0.00
2022-08-28T03:27:03.100Z,0.00
2022-08-28T03:28:02.977Z,0.00
2022-08-28T03:29:02.852Z,0.00
2022-08-28T03:30:03.421Z,0.00
2022-08-28T03:31:03.078Z,0.00
2022-08-28T03:32:02.732Z,0.00
2022-08-28T03:33:02.786Z,0.00
2022-08-28T03:34:02.766Z,0.00
2022-08-28T03:35:02.733Z,0.00
2022-08-28T03:36:04.729Z,0.00
2022-08-28T03:37:03.483Z,0.00
2022-08-28T03:38:03.330Z,0.00
2022-08-28T03:39:03.010Z,0.00
2022-08-28T03:40:02.986Z,0.00
2022-08-28T03:41:02.891Z,0.00
2022-08-28T03:42:03.445Z,0.00
2022-08-28T03:43:03.617Z,0.00
2022-08-28T03:44:03.530Z,0.00
2022-08-28T03:45:03.416Z,0.00
2022-08-28T03:46:03.365Z,0.00
2022-08-28T03:47:03.100Z,0.00
2022-08-28T03:48:02.976Z,0.00
2022-08-28T03:49:02.864Z,0.00
2022-08-28T03:50:03.246Z,0.00
2022-08-28T03:51:03.024Z,0.00
2022-08-28T03:52:03.195Z,0.00
2022-08-28T03:53:03.803Z,0.00
2022-08-28T03:54:03.493Z,0.00
2022-08-28T03:55:03.375Z,0.00
2022-08-28T03:56:03.289Z,0.00
2022-08-28T03:57:02.935Z,0.00
2022-08-28T03:58:02.845Z,0.00
2022-08-28T03:59:02.797Z,0.00
2022-08-28T04:00:02.672Z,0.00
2022-08-28T04:01:02.921Z,0.00
2022-08-28T04:02:03.574Z,0.00
2022-08-28T04:03:03.498Z,0.00
2022-08-28T04:04:03.731Z,0.00
2022-08-28T04:05:03.400Z,0.00
2022-08-28T04:06:03.162Z,0.00
2022-08-28T04:07:03.165Z,0.00
2022-08-28T04:08:02.945Z,0.00
2022-08-28T04:09:02.934Z,0.00
2022-08-28T04:10:02.907Z,4.00
2022-08-28T04:11:03.016Z,4.00
2022-08-28T04:12:03.750Z,4.00
2022-08-28T04:13:03.425Z,0.00
2022-08-28T04:14:03.303Z,4.00
2022-08-28T04:15:03.218Z,4.00
2022-08-28T04:16:05.024Z,4.00
2022-08-28T04:17:03.358Z,8.00
2022-08-28T04:18:02.872Z,8.00
2022-08-28T04:19:02.844Z,8.00
2022-08-28T04:20:02.744Z,8.00
2022-08-28T04:21:03.329Z,12.00
2022-08-28T04:22:03.324Z,16.00
2022-08-28T04:23:03.318Z,16.00
2022-08-28T04:24:07.830Z,24.00
2022-08-28T04:25:03.339Z,24.00
2022-08-28T04:26:03.122Z,32.00
2022-08-28T04:27:03.406Z,32.00
2022-08-28T04:28:03.309Z,36.00
2022-08-28T04:29:03.346Z,44.00
2022-08-28T04:30:03.477Z,52.00
2022-08-28T04:31:03.474Z,56.00
2022-08-28T04:32:04.162Z,64.00
2022-08-28T04:33:03.811Z,76.00
2022-08-28T04:34:03.897Z,88.00
2022-08-28T04:35:03.787Z,100.00
2022-08-28T04:36:03.798Z,108.00
2022-08-28T04:37:03.103Z,120.00
2022-08-28T04:38:05.568Z,136.00
2022-08-28T04:39:03.376Z,144.00
2022-08-28T04:40:03.082Z,156.00
2022-08-28T04:41:03.369Z,172.00
2022-08-28T04:42:03.390Z,184.00
2022-08-28T04:43:03.387Z,196.00
2022-08-28T04:44:03.408Z,212.00
2022-08-28T04:45:03.423Z,224.00
2022-08-28T04:46:03.931Z,244.00
2022-08-28T04:47:02.820Z,256.00
2022-08-28T04:48:03.279Z,280.00
2022-08-28T04:49:03.322Z,296.00
2022-08-28T04:50:03.366Z,320.00
2022-08-28T04:51:02.926Z,340.00
2022-08-28T04:52:03.183Z,360.00
2022-08-28T04:53:03.252Z,384.00
2022-08-28T04:54:03.295Z,412.00
2022-08-28T04:55:03.262Z,436.00
2022-08-28T04:56:03.301Z,464.00
2022-08-28T04:57:06.415Z,492.00
2022-08-28T04:58:03.719Z,520.00
2022-08-28T04:59:03.990Z,548.00
2022-08-28T05:00:04.089Z,576.00
2022-08-28T05:01:04.278Z,604.00
2022-08-28T05:02:03.408Z,632.00
2022-08-28T05:03:03.178Z,664.00
2022-08-28T05:04:03.203Z,696.00
2022-08-28T05:05:02.970Z,724.00
2022-08-28T05:06:03.271Z,748.00
2022-08-28T05:07:03.341Z,772.00
2022-08-28T05:08:03.830Z,792.00
2022-08-28T05:09:03.801Z,820.00
2022-08-28T05:10:03.781Z,840.00
2022-08-28T05:11:03.815Z,872.00
2022-08-28T05:12:02.612Z,892.00
2022-08-28T05:13:02.770Z,924.00
2022-08-28T05:14:02.996Z,960.00
2022-08-28T05:15:03.024Z,996.00
2022-08-28T05:16:02.979Z,1036.00
2022-08-28T05:17:03.062Z,1080.00
2022-08-28T05:18:03.142Z,1128.00
2022-08-28T05:19:03.225Z,1164.00
2022-08-28T05:20:03.151Z,1208.00
2022-08-28T05:21:03.411Z,1268.00
2022-08-28T05:22:03.586Z,1324.00
2022-08-28T05:23:03.472Z,1380.00
2022-08-28T05:24:03.564Z,1448.00
2022-08-28T05:25:03.522Z,1512.00
2022-08-28T05:26:03.758Z,1580.00
2022-08-28T05:27:02.895Z,1644.00
2022-08-28T05:28:02.913Z,1712.00
2022-08-28T05:29:02.978Z,1784.00
2022-08-28T05:30:02.988Z,1852.00
2022-08-28T05:31:02.753Z,1916.00
2022-08-28T05:32:03.887Z,1992.00
2022-08-28T05:33:03.633Z,2052.00
2022-08-28T05:34:03.595Z,2120.00
2022-08-28T05:35:03.468Z,2188.00
2022-08-28T05:36:03.695Z,2252.00
2022-08-28T05:37:02.908Z,2308.00
2022-08-28T05:38:02.817Z,2360.00
2022-08-28T05:39:02.846Z,2400.00
2022-08-28T05:40:03.032Z,2460.00
2022-08-28T05:41:03.154Z,2504.00
2022-08-28T05:42:02.953Z,2568.00
2022-08-28T05:43:02.985Z,2612.00
2022-08-28T05:44:03.545Z,2652.00
2022-08-28T05:45:03.040Z,2712.00
2022-08-28T05:46:03.225Z,2772.00
2022-08-28T05:47:02.636Z,2832.00
2022-08-28T05:48:02.759Z,2908.00
2022-08-28T05:49:06.592Z,3004.00
2022-08-28T05:50:02.951Z,3048.00
2022-08-28T05:51:03.122Z,3116.00
2022-08-28T05:52:03.489Z,3180.00
2022-08-28T05:53:02.864Z,3248.00
2022-08-28T05:54:02.924Z,3336.00
2022-08-28T05:55:03.090Z,3428.00
2022-08-28T05:56:03.542Z,3536.00
2022-08-28T05:57:03.416Z,3648.00
2022-08-28T05:58:03.067Z,3752.00
2022-08-28T05:59:03.405Z,3844.00
2022-08-28T06:00:03.549Z,3936.00
2022-08-28T06:01:03.216Z,4004.00
2022-08-28T06:02:04.534Z,4072.00
2022-08-28T06:03:02.763Z,4124.00
2022-08-28T06:04:02.729Z,4176.00
2022-08-28T06:05:02.828Z,4244.00
2022-08-28T06:06:03.047Z,4328.00
2022-08-28T06:07:03.246Z,4420.00
2022-08-28T06:08:03.274Z,4520.00
2022-08-28T06:09:03.168Z,4616.00
2022-08-28T06:10:03.231Z,4708.00
2022-08-28T06:11:03.407Z,4772.00
2022-08-28T06:12:03.393Z,4808.00
2022-08-28T06:13:03.135Z,4840.00
2022-08-28T06:14:02.958Z,4880.00
2022-08-28T06:15:03.224Z,4912.00
2022-08-28T06:16:03.619Z,4936.00
2022-08-28T06:17:03.565Z,4936.00
2022-08-28T06:18:03.146Z,4972.00
2022-08-28T06:19:03.802Z,4948.00
2022-08-28T06:20:03.339Z,4976.00
2022-08-28T06:21:03.159Z,5212.00
2022-08-28T06:22:07.028Z,5060.00
2022-08-28T06:23:03.129Z,5100.00
2022-08-28T06:24:02.895Z,5144.00
2022-08-28T06:25:05.456Z,5176.00
2022-08-28T06:26:02.503Z,5228.00
2022-08-28T06:27:03.351Z,5252.00
2022-08-28T06:28:03.204Z,5260.00
2022-08-28T06:29:03.092Z,5304.00
2022-08-28T06:30:03.302Z,5396.00
2022-08-28T06:31:23.191Z,5568.00
2022-08-28T06:32:03.668Z,5764.00
2022-08-28T06:33:03.621Z,5900.00
2022-08-28T06:34:03.422Z,5988.00
2022-08-28T06:35:03.176Z,6032.00
2022-08-28T06:36:03.738Z,6136.00
2022-08-28T06:37:03.421Z,6248.00
2022-08-28T06:38:03.943Z,6388.00
2022-08-28T06:39:03.960Z,6472.00
2022-08-28T06:40:03.442Z,6588.00
2022-08-28T06:41:03.579Z,6652.00
2022-08-28T06:42:03.369Z,6712.00
2022-08-28T06:43:03.496Z,6748.00
2022-08-28T06:44:03.387Z,6864.00
2022-08-28T06:45:03.211Z,6948.00
2022-08-28T06:46:03.314Z,7124.00
2022-08-28T06:47:03.666Z,7376.00
2022-08-28T06:48:03.382Z,7588.00
2022-08-28T06:49:03.616Z,7428.00
2022-08-28T06:50:03.716Z,7308.00
2022-08-28T06:51:03.259Z,8000.00
2022-08-28T06:52:03.064Z,7348.00
2022-08-28T06:53:03.182Z,7376.00
2022-08-28T06:54:03.024Z,7672.00
2022-08-28T06:55:03.121Z,9012.00
2022-08-28T06:56:02.820Z,8024.00
2022-08-28T06:57:03.664Z,7664.00
2022-08-28T06:58:03.328Z,7136.00
2022-08-28T06:59:03.473Z,8176.00
2022-08-28T07:00:03.552Z,8160.00
2022-08-28T07:01:03.777Z,8912.00
2022-08-28T07:02:04.008Z,8376.00
2022-08-28T07:03:03.395Z,7752.00
2022-08-28T07:04:03.568Z,7568.00
2022-08-28T07:05:03.822Z,7168.00
2022-08-28T07:06:03.403Z,7560.00
2022-08-28T07:07:03.194Z,7788.00
2022-08-28T07:08:02.656Z,7192.00
2022-08-28T07:09:02.834Z,6876.00
2022-08-28T07:10:03.245Z,6820.00
2022-08-28T07:11:02.857Z,7584.00
2022-08-28T07:12:03.450Z,8744.00
2022-08-28T07:13:03.206Z,8656.00
2022-08-28T07:14:02.995Z,12288.00
2022-08-28T07:15:03.366Z,13668.00
2022-08-28T07:16:03.184Z,13536.00
2022-08-28T07:17:02.426Z,10156.00
2022-08-28T07:18:02.549Z,16224.00
2022-08-28T07:19:03.053Z,15904.00
2022-08-28T07:20:02.920Z,15552.00
2022-08-28T07:21:02.715Z,15392.00
2022-08-28T07:22:02.504Z,15392.00
2022-08-28T07:23:02.939Z,15360.00
2022-08-28T07:24:03.177Z,15328.00
2022-08-28T07:25:02.622Z,15424.00
2022-08-28T07:26:02.687Z,15552.00
2022-08-28T07:27:02.624Z,15648.00
2022-08-28T07:28:03.235Z,15744.00
2022-08-28T07:29:09.917Z,15840.00
2022-08-28T07:30:02.745Z,15840.00
2022-08-28T07:31:02.958Z,15936.00
2022-08-28T07:32:03.145Z,15936.00
2022-08-28T07:33:03.257Z,16096.00
2022-08-28T07:34:03.693Z,16192.00
2022-08-28T07:35:03.765Z,16288.00
2022-08-28T07:36:03.787Z,16288.00
2022-08-28T07:37:02.870Z,16448.00
2022-08-28T07:38:02.980Z,16480.00
2022-08-28T07:39:03.049Z,16608.00
2022-08-28T07:40:02.955Z,16608.00
2022-08-28T07:41:03.308Z,16864.00
2022-08-28T07:42:03.729Z,17056.00
2022-08-28T07:43:03.567Z,16992.00
2022-08-28T07:44:03.174Z,16960.00
2022-08-28T07:45:03.446Z,17120.00
2022-08-28T07:46:03.347Z,17248.00
2022-08-28T07:47:02.751Z,17280.00
2022-08-28T07:48:03.238Z,17376.00
2022-08-28T07:49:03.004Z,17536.00
2022-08-28T07:50:03.211Z,17632.00
2022-08-28T07:51:02.956Z,17856.00
2022-08-28T07:52:02.959Z,17888.00
2022-08-28T07:53:02.902Z,17984.00
2022-08-28T07:54:03.414Z,18112.00
2022-08-28T07:55:03.154Z,18112.00
2022-08-28T07:56:03.005Z,18080.00
2022-08-28T07:57:03.271Z,18304.00
2022-08-28T07:58:03.638Z,18496.00
2022-08-28T07:59:03.694Z,18720.00
2022-08-28T08:00:03.272Z,18752.00
2022-08-28T08:01:03.563Z,18784.00
2022-08-28T08:02:02.752Z,18848.00
2022-08-28T08:03:02.638Z,18912.00
2022-08-28T08:04:03.234Z,18976.00
2022-08-28T08:05:03.071Z,19040.00
2022-08-28T08:06:02.888Z,19296.00
2022-08-28T08:07:02.926Z,19520.00
2022-08-28T08:08:03.414Z,19616.00
2022-08-28T08:09:03.439Z,19712.00
2022-08-28T08:10:02.901Z,19648.00
2022-08-28T08:11:02.962Z,19808.00
2022-08-28T08:12:02.334Z,19808.00
2022-08-28T08:13:02.412Z,20064.00
2022-08-28T08:14:02.159Z,20448.00
2022-08-28T08:15:02.176Z,20832.00
2022-08-28T08:16:02.563Z,20800.00
2022-08-28T08:17:02.779Z,20832.00
2022-08-28T08:18:02.701Z,20896.00
2022-08-28T08:19:02.988Z,21088.00
2022-08-28T08:20:03.240Z,21024.00
2022-08-28T08:21:02.608Z,20960.00
2022-08-28T08:22:02.996Z,21024.00
2022-08-28T08:23:03.051Z,21088.00
2022-08-28T08:24:03.374Z,21312.00
2022-08-28T08:25:02.908Z,21472.00
2022-08-28T08:26:03.224Z,21568.00
2022-08-28T08:27:03.134Z,21824.00
2022-08-28T08:28:03.224Z,22048.00
2022-08-28T08:29:02.940Z,22176.00
2022-08-28T08:30:03.128Z,22144.00
2022-08-28T08:31:03.659Z,22496.00
2022-08-28T08:32:03.310Z,23168.00
2022-08-28T08:33:03.421Z,23360.00
2022-08-28T08:34:03.455Z,23136.00
2022-08-28T08:35:03.215Z,23072.00
2022-08-28T08:36:03.235Z,23136.00
2022-08-28T08:37:02.475Z,23008.00
2022-08-28T08:38:03.052Z,23040.00
2022-08-28T08:39:02.336Z,23040.00
2022-08-28T08:40:02.705Z,22720.00
2022-08-28T08:41:02.267Z,22880.00
2022-08-28T08:42:03.271Z,22528.00
2022-08-28T08:43:03.208Z,22272.00
2022-08-28T08:44:02.922Z,22784.00
2022-08-28T08:45:03.140Z,16224.00
2022-08-28T08:46:03.437Z,22496.00
2022-08-28T08:47:03.131Z,22528.00
2022-08-28T08:48:03.334Z,22592.00
2022-08-28T08:49:03.384Z,23104.00
2022-08-28T08:50:03.299Z,23680.00
2022-08-28T08:51:03.500Z,24512.00
2022-08-28T08:52:03.500Z,24256.00
2022-08-28T08:53:03.848Z,22784.00
2022-08-28T08:54:03.806Z,22368.00
2022-08-28T08:55:03.430Z,23328.00
2022-08-28T08:56:03.254Z,9028.00
2022-08-28T08:57:03.142Z,24160.00
2022-08-28T08:58:03.382Z,18304.00
2022-08-28T08:59:03.010Z,20000.00
2022-08-28T09:00:03.396Z,18848.00
2022-08-28T09:01:03.148Z,24992.00
2022-08-28T09:02:03.293Z,24992.00
2022-08-28T09:03:03.312Z,25184.00
2022-08-28T09:04:03.581Z,25376.00
2022-08-28T09:05:03.379Z,25056.00
2022-08-28T09:06:03.342Z,24768.00
2022-08-28T09:07:03.438Z,25408.00
2022-08-28T09:08:03.292Z,26080.00
2022-08-28T09:09:03.283Z,26176.00
2022-08-28T09:10:03.345Z,26272.00
2022-08-28T09:11:03.475Z,26080.00
2022-08-28T09:12:03.075Z,26208.00
2022-08-28T09:13:02.480Z,26432.00
2022-08-28T09:14:02.880Z,26208.00
2022-08-28T09:15:03.036Z,26304.00
2022-08-28T09:16:03.165Z,26560.00
2022-08-28T09:17:03.155Z,27040.00
2022-08-28T09:18:03.126Z,22176.00
2022-08-28T09:19:03.396Z,29824.00
2022-08-28T09:20:02.884Z,29856.00
2022-08-28T09:21:02.923Z,29792.00
2022-08-28T09:22:03.216Z,29184.00
2022-08-28T09:23:12.701Z,29024.00
2022-08-28T09:24:03.699Z,28320.00
2022-08-28T09:25:02.983Z,27360.00
2022-08-28T09:26:02.885Z,27040.00
2022-08-28T09:27:02.793Z,26432.00
2022-08-28T09:28:02.618Z,25984.00
2022-08-28T09:29:02.972Z,26048.00
2022-08-28T09:30:07.990Z,25152.00
2022-08-28T09:31:03.140Z,25248.00
2022-08-28T09:32:03.394Z,25376.00
2022-08-28T09:33:03.787Z,25216.00
2022-08-28T09:34:03.434Z,25536.00
2022-08-28T09:35:03.307Z,25376.00
2022-08-28T09:36:03.082Z,25504.00
2022-08-28T09:37:03.605Z,25504.00
2022-08-28T09:38:03.439Z,25600.00
2022-08-28T09:39:03.284Z,25920.00
2022-08-28T09:40:03.807Z,25952.00
2022-08-28T09:41:03.802Z,25920.00
2022-08-28T09:42:03.049Z,26016.00
2022-08-28T09:43:02.699Z,26176.00
2022-08-28T09:44:02.493Z,25984.00
2022-08-28T09:45:02.624Z,25856.00
2022-08-28T09:46:02.527Z,26560.00
2022-08-28T09:47:03.152Z,26688.00
2022-08-28T09:48:03.349Z,26880.00
2022-08-28T09:49:03.269Z,26912.00
2022-08-28T09:50:02.762Z,27040.00
2022-08-28T09:51:03.007Z,27296.00
2022-08-28T09:52:03.421Z,27712.00
2022-08-28T09:53:03.462Z,27744.00
2022-08-28T09:54:03.820Z,27616.00
2022-08-28T09:55:03.601Z,27648.00
2022-08-28T09:56:03.463Z,27616.00
2022-08-28T09:57:03.244Z,27552.00
2022-08-28T09:58:03.045Z,27712.00
2022-08-28T09:59:03.208Z,27744.00
2022-08-28T10:00:02.956Z,27712.00
2022-08-28T10:01:02.816Z,27840.00
2022-08-28T10:02:02.978Z,28064.00
2022-08-28T10:03:07.394Z,27968.00
2022-08-28T10:04:02.850Z,27776.00
2022-08-28T10:05:03.009Z,27936.00
2022-08-28T10:06:02.989Z,27488.00
2022-08-28T10:07:03.102Z,27296.00
2022-08-28T10:08:02.911Z,27200.00
2022-08-28T10:09:02.676Z,26784.00
2022-08-28T10:10:02.771Z,26976.00
2022-08-28T10:11:02.996Z,26528.00
2022-08-28T10:12:02.807Z,26880.00
2022-08-28T10:13:02.786Z,26592.00
2022-08-28T10:14:02.765Z,26720.00
2022-08-28T10:15:02.610Z,26720.00
2022-08-28T10:16:02.543Z,26752.00
2022-08-28T10:17:03.203Z,26272.00
2022-08-28T10:18:03.017Z,26336.00
2022-08-28T10:19:02.819Z,26720.00
2022-08-28T10:20:02.723Z,26432.00
2022-08-28T10:21:02.739Z,25152.00
2022-08-28T10:22:01.945Z,25088.00
2022-08-28T10:23:02.185Z,25952.00
2022-08-28T10:24:02.194Z,25824.00
2022-08-28T10:25:02.307Z,25120.00
2022-08-28T10:26:02.135Z,25920.00
2022-08-28T10:27:02.346Z,25408.00
2022-08-28T10:28:02.563Z,24480.00
2022-08-28T10:29:02.576Z,23488.00
2022-08-28T10:30:06.064Z,23296.00
2022-08-28T10:31:02.864Z,22496.00
2022-08-28T10:32:02.997Z,21184.00
2022-08-28T10:33:02.617Z,20576.00
2022-08-28T10:34:02.133Z,17408.00
2022-08-28T10:35:02.117Z,17824.00
2022-08-28T10:36:02.638Z,9940.00
2022-08-28T10:37:02.606Z,12804.00
2022-08-28T10:38:03.369Z,12928.00
2022-08-28T10:39:03.346Z,22336.00
2022-08-28T10:40:04.508Z,15140.00
2022-08-28T10:41:02.983Z,12596.00
2022-08-28T10:42:02.893Z,10916.00
2022-08-28T10:43:02.348Z,10016.00
2022-08-28T10:44:02.167Z,6840.00
2022-08-28T10:45:02.506Z,6556.00
2022-08-28T10:46:02.233Z,7612.00
2022-08-28T10:47:02.501Z,7760.00
2022-08-28T10:48:02.491Z,7636.00
2022-08-28T10:49:02.722Z,8048.00
2022-08-28T10:50:02.479Z,7924.00
2022-08-28T10:51:02.530Z,7980.00
2022-08-28T10:52:02.796Z,7892.00
2022-08-28T10:53:02.805Z,7652.00
2022-08-28T10:54:02.375Z,7504.00
2022-08-28T10:55:02.304Z,7716.00
2022-08-28T10:56:02.827Z,7672.00
2022-08-28T10:57:02.707Z,7508.00
2022-08-28T10:58:02.764Z,7396.00
2022-08-28T10:59:02.568Z,7356.00
2022-08-28T11:00:02.609Z,7284.00
2022-08-28T11:01:02.753Z,6856.00
2022-08-28T11:02:02.732Z,6828.00
2022-08-28T11:03:03.109Z,6868.00
2022-08-28T11:04:03.505Z,7080.00
2022-08-28T11:05:03.128Z,7596.00
2022-08-28T11:06:03.139Z,7624.00
2022-08-28T11:07:03.301Z,7720.00
2022-08-28T11:08:02.907Z,7192.00
2022-08-28T11:09:02.731Z,7612.00
2022-08-28T11:10:03.045Z,6884.00
2022-08-28T11:11:03.246Z,7388.00
2022-08-28T11:12:02.818Z,8116.00
2022-08-28T11:13:03.663Z,7672.00
2022-08-28T11:14:03.147Z,8184.00
2022-08-28T11:15:03.494Z,8908.00
2022-08-28T11:16:03.635Z,9132.00
2022-08-28T11:17:03.820Z,10328.00
2022-08-28T11:18:03.306Z,13076.00
2022-08-28T11:19:03.356Z,15712.00
2022-08-28T11:20:03.122Z,16352.00
2022-08-28T11:21:03.488Z,16384.00
2022-08-28T11:22:03.138Z,17312.00
2022-08-28T11:23:03.775Z,17440.00
2022-08-28T11:24:03.790Z,12212.00
2022-08-28T11:25:08.936Z,16928.00
2022-08-28T11:26:03.961Z,17984.00
2022-08-28T11:27:04.058Z,14408.00
2022-08-28T11:28:03.060Z,14744.00
2022-08-28T11:29:03.019Z,10556.00
2022-08-28T11:30:03.160Z,6820.00
2022-08-28T11:31:02.942Z,16576.00
2022-08-28T11:32:03.066Z,16032.00
2022-08-28T11:33:03.247Z,16160.00
2022-08-28T11:34:03.846Z,16096.00
2022-08-28T11:35:03.642Z,14816.00
2022-08-28T11:36:03.677Z,13468.00
2022-08-28T11:37:03.789Z,8472.00
2022-08-28T11:38:03.576Z,12168.00
2022-08-28T11:39:03.374Z,13336.00
2022-08-28T11:40:03.751Z,5756.00
2022-08-28T11:41:03.667Z,10592.00
2022-08-28T11:42:03.331Z,11708.00
2022-08-28T11:43:03.824Z,10456.00
2022-08-28T11:44:03.565Z,12632.00
2022-08-28T11:45:03.835Z,9988.00
2022-08-28T11:46:03.651Z,12496.00
2022-08-28T11:47:04.026Z,12024.00
2022-08-28T11:48:03.264Z,11800.00
2022-08-28T11:49:03.375Z,10928.00
2022-08-28T11:50:03.535Z,8684.00
2022-08-28T11:51:03.647Z,10360.00
2022-08-28T11:52:03.622Z,10284.00
2022-08-28T11:53:02.888Z,10200.00
2022-08-28T11:54:03.080Z,7004.00
2022-08-28T11:55:03.041Z,8664.00
2022-08-28T11:56:03.072Z,7748.00
2022-08-28T11:57:02.883Z,7124.00
2022-08-28T11:59:03.190Z,9312.00
2022-08-28T12:00:02.958Z,7384.00
2022-08-28T12:01:03.192Z,8236.00
2022-08-28T12:02:03.341Z,8176.00
2022-08-28T12:03:02.822Z,7900.00
2022-08-28T12:04:07.451Z,8588.00
2022-08-28T12:05:02.680Z,6920.00
2022-08-28T12:06:02.657Z,6680.00
2022-08-28T12:07:02.777Z,6944.00
2022-08-28T12:08:01.920Z,7252.00
2022-08-28T12:09:01.938Z,6880.00
2022-08-28T12:10:05.168Z,7868.00
2022-08-28T12:11:01.904Z,9968.00
2022-08-28T12:12:02.003Z,8420.00
2022-08-28T12:13:02.239Z,6952.00
2022-08-28T12:14:02.322Z,10416.00
2022-08-28T12:15:02.071Z,7236.00
2022-08-28T12:16:02.289Z,6572.00
2022-08-28T12:17:02.430Z,7320.00
2022-08-28T12:18:02.409Z,6780.00
2022-08-28T12:19:03.079Z,6668.00
2022-08-28T12:20:02.843Z,4980.00
2022-08-28T12:21:02.829Z,5928.00
2022-08-28T12:22:02.427Z,5932.00
2022-08-28T12:23:02.444Z,5948.00
2022-08-28T12:24:09.206Z,5984.00
2022-08-28T12:25:02.145Z,5968.00